Time;durP1;ratioP1;P1;durP2;ratioP2;P2;SDS_P1;SDS_P2;PMS_P1;PMS_P2;Temp;Humidity;BMP_temperature;BMP_pressure;BME280_temperature;BME280_humidity;BME280_pressure;Samples;Min_cycle;Max_cycle;Signal;HPM_P1;HPM_P2
2023/05/18 00:03:34;;;;;;;;;;;14.40;37.70;;;;;;21164345;28;20321;-57
2023/05/18 00:13:35;;;;;;;;;;;14.40;37.90;;;;;;21163567;28;19924;-59
2023/05/18 00:23:38;;;;;;;;;;;14.20;38.50;;;;;;21164440;28;19935;-57
2023/05/18 00:33:39;;;;;;;;;;;14.10;38.70;;;;;;21163925;28;19927;-57
2023/05/18 00:43:40;;;;;;;;;;;14.00;39.20;;;;;;21180943;28;20288;-60
2023/05/18 00:53:41;;;;;;;;;;;14.00;39.30;;;;;;21177939;28;20039;-58
2023/05/18 01:03:42;;;;;;;;;;;13.90;39.60;;;;;;21178191;28;19928;-58
2023/05/18 01:14:02;;;;;;;;;;;13.80;40.00;;;;;;21177360;28;19969;-58
2023/05/18 01:24:20;;;;;;;;;;;13.60;40.50;;;;;;21174983;28;20412;-58
2023/05/18 01:34:21;;;;;;;;;;;13.50;40.50;;;;;;21175703;28;20377;-57
2023/05/18 01:44:29;;;;;;;;;;;13.30;40.90;;;;;;21175088;28;19947;-57
2023/05/18 01:54:31;;;;;;;;;;;13.40;40.60;;;;;;21173917;28;20390;-57
2023/05/18 02:04:31;;;;;;;;;;;13.20;41.20;;;;;;21173581;28;19931;-58
2023/05/18 02:14:32;;;;;;;;;;;13.20;41.10;;;;;;21172765;28;20265;-58
2023/05/18 02:24:33;;;;;;;;;;;13.10;41.50;;;;;;21171076;28;20319;-59
2023/05/18 02:34:37;;;;;;;;;;;13.10;41.70;;;;;;21172219;28;20338;-57
2023/05/18 02:44:37;;;;;;;;;;;13.00;42.30;;;;;;21171480;28;20300;-57
2023/05/18 02:54:38;;;;;;;;;;;12.90;42.90;;;;;;21170621;28;19928;-56
2023/05/18 03:04:38;;;;;;;;;;;13.00;43.10;;;;;;21169046;28;19930;-58
2023/05/18 03:14:39;;;;;;;;;;;12.70;43.70;;;;;;21167513;28;19988;-59
2023/05/18 03:24:40;;;;;;;;;;;12.70;43.90;;;;;;21166625;28;19993;-56
2023/05/18 03:34:40;;;;;;;;;;;12.70;44.30;;;;;;21166096;28;20049;-56
2023/05/18 03:44:41;;;;;;;;;;;12.70;44.30;;;;;;21166664;28;20057;-57
2023/05/18 03:54:43;;;;;;;;;;;12.60;44.40;;;;;;21166038;28;20392;-57
2023/05/18 04:04:46;;;;;;;;;;;12.50;44.30;;;;;;21165345;28;20433;-58
2023/05/18 04:14:49;;;;;;;;;;;12.60;44.40;;;;;;21163528;28;19963;-56
2023/05/18 04:24:53;;;;;;;;;;;12.40;45.00;;;;;;21163046;28;19950;-58
2023/05/18 04:34:57;;;;;;;;;;;12.50;44.80;;;;;;21163395;28;20047;-57
2023/05/18 04:44:59;;;;;;;;;;;12.50;44.80;;;;;;21163557;28;19924;-57
2023/05/18 04:54:59;;;;;;;;;;;12.60;44.90;;;;;;21161741;28;19966;-58
2023/05/18 05:05:00;;;;;;;;;;;12.70;45.00;;;;;;21162734;28;19924;-57
2023/05/18 05:15:01;;;;;;;;;;;12.60;45.80;;;;;;21155684;28;19924;-57
2023/05/18 05:25:01;;;;;;;;;;;12.50;46.50;;;;;;21166016;28;20014;-58
2023/05/18 05:35:02;;;;;;;;;;;12.60;47.00;;;;;;21176534;28;19923;-57
2023/05/18 05:45:03;;;;;;;;;;;12.60;47.00;;;;;;21175838;28;19932;-57
2023/05/18 05:55:04;;;;;;;;;;;12.60;47.10;;;;;;21174804;28;20007;-58
2023/05/18 06:05:06;;;;;;;;;;;12.60;47.20;;;;;;21173871;28;19984;-57
2023/05/18 06:15:07;;;;;;;;;;;12.70;47.50;;;;;;21171209;28;19924;-57
2023/05/18 06:25:09;;;;;;;;;;;12.70;47.80;;;;;;21170867;28;19928;-58
2023/05/18 06:35:10;;;;;;;;;;;12.70;47.70;;;;;;21169881;28;19927;-58
2023/05/18 06:45:12;;;;;;;;;;;12.70;47.70;;;;;;21170683;28;20369;-58
2023/05/18 06:55:14;;;;;;;;;;;13.00;47.40;;;;;;21170899;28;19928;-58
2023/05/18 07:05:15;;;;;;;;;;;13.60;45.80;;;;;;21168616;28;20004;-57
2023/05/18 07:15:16;;;;;;;;;;;14.20;44.30;;;;;;21167170;28;19924;-58
2023/05/18 07:25:17;;;;;;;;;;;14.10;44.40;;;;;;21165929;28;19935;-60
2023/05/18 07:35:20;;;;;;;;;;;14.00;44.70;;;;;;21166987;28;20460;-56
2023/05/18 07:45:22;;;;;;;;;;;14.50;43.50;;;;;;21164899;28;19923;-58
2023/05/18 07:55:23;;;;;;;;;;;15.00;41.30;;;;;;21164606;28;19930;-57
2023/05/18 08:05:23;;;;;;;;;;;15.10;41.50;;;;;;21164892;28;19923;-58
2023/05/18 08:15:24;;;;;;;;;;;15.60;40.20;;;;;;21164223;28;19966;-57
2023/05/18 08:25:25;;;;;;;;;;;15.90;39.10;;;;;;21162337;28;20311;-57
2023/05/18 08:35:26;;;;;;;;;;;16.00;38.70;;;;;;21163018;28;20399;-57
2023/05/18 08:45:34;;;;;;;;;;;16.20;37.90;;;;;;21163206;28;19977;-56
2023/05/18 08:55:36;;;;;;;;;;;16.50;37.50;;;;;;21163097;28;19923;-57
2023/05/18 09:05:36;;;;;;;;;;;16.70;36.80;;;;;;21177934;28;19996;-57
2023/05/18 09:15:37;;;;;;;;;;;17.00;36.10;;;;;;21177677;28;19928;-57
2023/05/18 09:25:42;;;;;;;;;;;17.20;35.40;;;;;;21177696;28;20039;-57
2023/05/18 09:35:43;;;;;;;;;;;17.60;35.20;;;;;;21177041;28;19924;-57
2023/05/18 09:45:49;;;;;;;;;;;18.00;38.60;;;;;;21173481;28;21389;-58
2023/05/18 09:55:49;;;;;;;;;;;18.20;35.30;;;;;;21172453;28;19978;-56
2023/05/18 10:05:50;;;;;;;;;;;18.30;34.30;;;;;;21172380;28;20368;-56
2023/05/18 10:15:55;;;;;;;;;;;18.50;33.40;;;;;;21170775;28;19931;-56
2023/05/18 10:25:56;;;;;;;;;;;18.70;32.70;;;;;;21169190;28;19977;-60
2023/05/18 10:35:56;;;;;;;;;;;19.10;32.90;;;;;;21167801;28;19923;-64
2023/05/18 10:45:58;;;;;;;;;;;19.40;32.80;;;;;;21167434;28;20269;-58
2023/05/18 10:55:59;;;;;;;;;;;19.60;31.80;;;;;;21167181;28;19970;-58
2023/05/18 11:06:07;;;;;;;;;;;19.70;30.50;;;;;;21168084;28;20384;-57
2023/05/18 11:16:08;;;;;;;;;;;19.80;30.10;;;;;;21164872;28;19935;-59
2023/05/18 11:26:14;;;;;;;;;;;19.80;29.50;;;;;;21166214;28;19923;-56
2023/05/18 11:36:21;;;;;;;;;;;20.00;28.00;;;;;;21165042;28;19924;-58
2023/05/18 11:46:22;;;;;;;;;;;19.90;28.10;;;;;;21163528;28;19924;-58
2023/05/18 11:56:23;;;;;;;;;;;19.90;26.80;;;;;;21164948;28;19924;-58
2023/05/18 12:06:25;;;;;;;;;;;19.80;27.10;;;;;;21165088;28;19923;-57
2023/05/18 12:16:25;;;;;;;;;;;19.90;26.60;;;;;;21163264;28;19931;-57
2023/05/18 12:26:27;;;;;;;;;;;20.10;26.50;;;;;;21162672;28;19924;-57
2023/05/18 12:36:28;;;;;;;;;;;20.20;26.20;;;;;;21175747;28;19927;-57
2023/05/18 12:46:29;;;;;;;;;;;20.20;25.80;;;;;;21180567;28;19930;-58
2023/05/18 12:56:51;;;;;;;;;;;20.40;24.60;;;;;;21178754;28;19971;-58
2023/05/18 13:06:55;;;;;;;;;;;20.50;23.60;;;;;;21177983;28;19923;-57
2023/05/18 13:16:56;;;;;;;;;;;20.60;22.50;;;;;;21176707;28;19982;-58
2023/05/18 13:26:57;;;;;;;;;;;20.70;22.20;;;;;;21175686;28;19923;-58
2023/05/18 13:36:59;;;;;;;;;;;20.80;21.40;;;;;;21174525;28;19935;-57
2023/05/18 13:47:00;;;;;;;;;;;21.10;19.70;;;;;;21172520;28;19923;-57
2023/05/18 13:57:01;;;;;;;;;;;21.20;20.10;;;;;;21173913;28;19986;-56
2023/05/18 14:07:02;;;;;;;;;;;21.20;19.20;;;;;;21173298;28;19969;-57
2023/05/18 14:17:03;;;;;;;;;;;21.20;19.70;;;;;;21170835;28;19967;-57
2023/05/18 14:27:03;;;;;;;;;;;21.20;20.30;;;;;;21169061;28;20410;-58
2023/05/18 14:37:04;;;;;;;;;;;21.40;17.60;;;;;;21168622;28;19931;-56
2023/05/18 14:47:05;;;;;;;;;;;21.40;17.20;;;;;;21167829;28;19974;-57
2023/05/18 14:57:06;;;;;;;;;;;21.50;17.30;;;;;;21166809;28;19931;-57
2023/05/18 15:07:06;;;;;;;;;;;21.60;18.20;;;;;;21164545;28;19950;-57
2023/05/18 15:17:07;;;;;;;;;;;21.60;19.10;;;;;;21165122;28;19982;-57
2023/05/18 15:27:09;;;;;;;;;;;21.80;19.80;;;;;;21165174;28;20018;-57
2023/05/18 15:37:09;;;;;;;;;;;21.70;19.60;;;;;;21164628;28;19930;-58
2023/05/18 15:47:10;;;;;;;;;;;21.70;21.00;;;;;;21162103;28;19975;-59
2023/05/18 15:57:11;;;;;;;;;;;21.80;21.70;;;;;;21161235;28;19969;-60
2023/05/18 16:07:13;;;;;;;;;;;21.90;21.50;;;;;;21160319;28;20419;-58
2023/05/18 16:17:14;;;;;;;;;;;21.90;21.50;;;;;;21159815;28;19993;-57
2023/05/18 16:27:15;;;;;;;;;;;22.10;22.00;;;;;;21161496;28;19924;-56
2023/05/18 16:37:15;;;;;;;;;;;22.20;22.40;;;;;;21162431;28;20007;-58
2023/05/18 16:47:16;;;;;;;;;;;21.80;22.70;;;;;;21161423;28;20032;-57
2023/05/18 16:57:17;;;;;;;;;;;21.70;22.90;;;;;;21160187;28;19924;-58
2023/05/18 17:07:17;;;;;;;;;;;21.80;23.20;;;;;;21160026;28;19924;-58
2023/05/18 17:17:18;;;;;;;;;;;22.00;22.70;;;;;;21144520;28;20007;-58
2023/05/18 17:27:19;;;;;;;;;;;21.90;22.70;;;;;;21173759;28;19985;-58
2023/05/18 17:37:20;;;;;;;;;;;22.00;21.80;;;;;;21174903;28;20429;-58
2023/05/18 17:47:21;;;;;;;;;;;21.80;21.60;;;;;;21173719;28;19930;-57
2023/05/18 17:57:22;;;;;;;;;;;21.60;21.60;;;;;;21173136;28;19923;-57
2023/05/18 18:07:22;;;;;;;;;;;21.50;21.50;;;;;;21173599;28;19968;-56
2023/05/18 18:17:23;;;;;;;;;;;21.40;21.60;;;;;;21172249;28;19970;-57
2023/05/18 18:27:24;;;;;;;;;;;21.40;21.80;;;;;;21170228;28;19978;-57
2023/05/18 18:37:24;;;;;;;;;;;21.20;22.10;;;;;;21171121;28;19924;-56
2023/05/18 18:47:25;;;;;;;;;;;21.10;22.20;;;;;;21170713;28;19972;-57
2023/05/18 18:57:25;;;;;;;;;;;21.00;21.60;;;;;;21169284;28;19923;-58
2023/05/18 19:07:26;;;;;;;;;;;20.80;21.80;;;;;;21168586;28;19924;-59
2023/05/18 19:17:27;;;;;;;;;;;20.70;21.70;;;;;;21166358;28;19930;-59
2023/05/18 19:27:27;;;;;;;;;;;20.70;22.10;;;;;;21166049;28;20034;-58
2023/05/18 19:37:28;;;;;;;;;;;20.40;22.50;;;;;;21166267;28;20359;-58
2023/05/18 19:47:29;;;;;;;;;;;20.20;22.90;;;;;;21165137;28;19934;-59
2023/05/18 19:57:30;;;;;;;;;;;20.20;23.10;;;;;;21164625;28;19968;-57
2023/05/18 20:07:31;;;;;;;;;;;20.00;23.50;;;;;;21164049;28;19930;-59
2023/05/18 20:17:32;;;;;;;;;;;19.70;24.00;;;;;;21163117;28;20011;-59
2023/05/18 20:27:33;;;;;;;;;;;19.40;24.70;;;;;;21161121;28;20369;-56
2023/05/18 20:37:33;;;;;;;;;;;19.10;26.00;;;;;;21161354;28;19927;-58
2023/05/18 20:47:34;;;;;;;;;;;18.80;26.90;;;;;;21162144;28;20399;-58
2023/05/18 20:57:38;;;;;;;;;;;18.60;27.30;;;;;;21170885;28;19924;-57
2023/05/18 21:07:39;;;;;;;;;;;18.30;27.90;;;;;;21176832;28;19934;-57
2023/05/18 21:17:39;;;;;;;;;;;18.10;28.30;;;;;;21176212;28;19969;-58
2023/05/18 21:27:40;;;;;;;;;;;17.90;28.70;;;;;;21175891;28;19931;-60
2023/05/18 21:37:41;;;;;;;;;;;17.70;28.40;;;;;;21175447;28;19924;-58
2023/05/18 21:47:41;;;;;;;;;;;17.30;29.60;;;;;;21175286;28;20385;-57
2023/05/18 21:57:42;;;;;;;;;;;17.20;30.20;;;;;;21173766;28;19924;-57
2023/05/18 22:07:43;;;;;;;;;;;16.90;30.90;;;;;;21171576;28;19947;-58
2023/05/18 22:17:44;;;;;;;;;;;16.70;32.00;;;;;;21170647;28;19924;-57
2023/05/18 22:27:45;;;;;;;;;;;16.40;32.50;;;;;;21172730;28;20002;-60
2023/05/18 22:37:45;;;;;;;;;;;16.20;33.20;;;;;;21172096;28;19963;-59
2023/05/18 22:47:47;;;;;;;;;;;16.00;33.80;;;;;;21171613;28;20024;-59
2023/05/18 22:57:47;;;;;;;;;;;15.80;34.10;;;;;;21169204;28;19963;-57
2023/05/18 23:07:48;;;;;;;;;;;15.60;34.40;;;;;;21168369;28;20303;-57
2023/05/18 23:17:53;;;;;;;;;;;15.50;34.30;;;;;;21167418;28;20296;-57
2023/05/18 23:27:53;;;;;;;;;;;15.40;34.10;;;;;;21167611;28;19924;-58
2023/05/18 23:37:56;;;;;;;;;;;15.10;33.70;;;;;;21167088;28;19923;-57
2023/05/18 23:47:57;;;;;;;;;;;15.10;33.60;;;;;;21166575;28;20075;-57
2023/05/18 23:57:57;;;;;;;;;;;14.90;34.30;;;;;;21165999;28;19923;-57
